createdAt,value
2023-02-07T00:01:01.669Z,99865.22
2023-02-07T00:03:33.980Z,99866.00
2023-02-07T00:06:12.976Z,99867.25
2023-02-07T00:08:47.087Z,99863.16
2023-02-07T00:11:21.785Z,99850.44
2023-02-07T00:13:58.130Z,99853.59
2023-02-07T00:16:30.592Z,99840.63
2023-02-07T00:21:56.378Z,99871.41
2023-02-07T00:24:28.242Z,99856.38
2023-02-07T00:27:01.097Z,99859.50
2023-02-07T00:29:33.147Z,99855.69
2023-02-07T00:32:06.105Z,99853.34
2023-02-07T00:34:38.689Z,99847.06
2023-02-07T00:37:11.178Z,99847.06
2023-02-07T00:39:44.651Z,99845.44
2023-02-07T00:42:16.615Z,99844.72
2023-02-07T00:44:49.336Z,99841.88
2023-02-07T00:47:22.922Z,99838.59
2023-02-07T00:49:54.807Z,99838.97
2023-02-07T00:52:28.133Z,99838.16
2023-02-07T00:55:00.077Z,99836.78
2023-02-07T00:57:35.735Z,99837.34
2023-02-07T01:00:11.278Z,99847.47
2023-02-07T01:02:43.598Z,99827.09
2023-02-07T01:05:15.500Z,99831.63
2023-02-07T01:07:48.272Z,99842.13
2023-02-07T01:10:21.369Z,99835.97
2023-02-07T01:12:53.615Z,99846.06
2023-02-07T01:15:49.560Z,99824.63
2023-02-07T01:18:21.946Z,99825.28
2023-02-07T01:23:44.886Z,99834.16
2023-02-07T01:26:17.214Z,99832.34
2023-02-07T01:28:49.960Z,99833.06
2023-02-07T01:31:23.228Z,99837.00
2023-02-07T01:34:00.961Z,99839.47
2023-02-07T01:36:33.320Z,99827.03
2023-02-07T01:39:05.438Z,99832.31
2023-02-07T01:41:39.693Z,99839.28
2023-02-07T01:44:23.791Z,99829.94
2023-02-07T01:46:57.317Z,99836.22
2023-02-07T01:49:34.285Z,99816.38
2023-02-07T01:52:14.423Z,99819.13
2023-02-07T01:54:50.841Z,99812.56
2023-02-07T01:57:23.989Z,99796.19
2023-02-07T01:59:58.764Z,99786.50
2023-02-07T02:02:34.782Z,99772.72
2023-02-07T02:05:09.007Z,99772.72
2023-02-07T02:07:42.217Z,99759.69
2023-02-07T02:10:22.799Z,99747.31
2023-02-07T02:13:21.660Z,99746.34
2023-02-07T02:16:14.607Z,99747.56
2023-02-07T02:19:27.872Z,99746.75
2023-02-07T02:22:50.819Z,99746.31
2023-02-07T02:25:55.235Z,99749.84
2023-02-07T02:29:06.162Z,99733.16
2023-02-07T02:32:13.913Z,99733.06
2023-02-07T02:35:17.581Z,99728.28
2023-02-07T02:38:07.980Z,99734.28
2023-02-07T02:41:04.210Z,99737.13
2023-02-07T02:43:51.986Z,99742.59
2023-02-07T02:46:30.957Z,99745.59
2023-02-07T02:49:09.430Z,99740.25
2023-02-07T02:51:42.898Z,99748.59
2023-02-07T02:54:48.119Z,99748.44
2023-02-07T02:58:02.634Z,99737.38
2023-02-07T03:00:57.028Z,99758.00
2023-02-07T03:04:09.812Z,99744.78
2023-02-07T03:07:09.059Z,99752.00
2023-02-07T03:10:05.783Z,99752.97
2023-02-07T03:12:55.950Z,99722.78
2023-02-07T03:15:47.328Z,99743.97
2023-02-07T03:18:36.446Z,99737.81
2023-02-07T03:21:23.181Z,99737.69
2023-02-07T03:23:58.226Z,99739.00
2023-02-07T03:26:35.138Z,99735.19
2023-02-07T03:29:09.001Z,99745.84
2023-02-07T03:31:44.717Z,99741.19
2023-02-07T03:34:22.918Z,99744.97
2023-02-07T03:37:05.832Z,99743.91
2023-02-07T03:39:38.233Z,99750.31
2023-02-07T03:42:51.556Z,99734.59
2023-02-07T03:45:24.470Z,99736.75
2023-02-07T03:47:56.375Z,99748.13
2023-02-07T03:50:29.166Z,99760.78
2023-02-07T03:53:01.493Z,99744.09
2023-02-07T03:55:35.669Z,99738.53
2023-02-07T03:58:08.940Z,99749.56
2023-02-07T04:01:00.084Z,99761.69
2023-02-07T04:03:32.162Z,99768.78
2023-02-07T04:06:05.354Z,99777.25
2023-02-07T04:08:37.664Z,99773.69
2023-02-07T04:11:10.617Z,99781.56
2023-02-07T04:13:42.498Z,99771.75
2023-02-07T04:16:15.248Z,99771.31
2023-02-07T04:18:48.386Z,99774.97
2023-02-07T04:21:20.925Z,99790.44
2023-02-07T04:23:55.976Z,99794.41
2023-02-07T04:26:49.661Z,99807.81
2023-02-07T04:29:22.377Z,99807.19
2023-02-07T04:32:16.870Z,99817.56
2023-02-07T04:34:49.633Z,99813.59
2023-02-07T04:37:40.697Z,99811.44
2023-02-07T04:40:13.438Z,99808.19
2023-02-07T04:42:45.519Z,99820.81
2023-02-07T04:45:18.381Z,99819.47
2023-02-07T04:47:50.951Z,99825.34
2023-02-07T04:50:23.704Z,99833.31
2023-02-07T04:52:55.606Z,99850.09
2023-02-07T04:55:28.592Z,99842.16
2023-02-07T04:58:00.913Z,99854.69
2023-02-07T05:00:34.147Z,99850.16
2023-02-07T05:03:06.054Z,99854.22
2023-02-07T05:05:43.377Z,99854.59
2023-02-07T05:08:15.539Z,99848.38
2023-02-07T05:10:52.557Z,99856.25
2023-02-07T05:13:25.580Z,99845.75
2023-02-07T05:15:58.024Z,99848.88
2023-02-07T05:18:48.358Z,99840.25
2023-02-07T05:21:21.112Z,99843.06
2023-02-07T05:23:53.006Z,99841.13
2023-02-07T05:26:25.748Z,99848.38
2023-02-07T05:28:57.662Z,99843.88
2023-02-07T05:31:53.500Z,99853.06
2023-02-07T05:34:26.708Z,99854.56
2023-02-07T05:36:59.036Z,99873.56
2023-02-07T05:39:50.009Z,99897.03
2023-02-07T05:42:21.962Z,99910.88
2023-02-07T05:44:54.703Z,99917.81
2023-02-07T05:47:27.386Z,99926.50
2023-02-07T05:50:00.177Z,99931.00
2023-02-07T05:55:46.749Z,99924.53
2023-02-07T05:58:19.080Z,99923.31
2023-02-07T06:00:51.388Z,99925.19
2023-02-07T06:03:24.028Z,99921.03
2023-02-07T06:05:56.859Z,99924.53
2023-02-07T06:08:28.794Z,99929.00
2023-02-07T06:11:03.437Z,99943.09
2023-02-07T06:13:35.914Z,99952.47
2023-02-07T06:16:11.030Z,99959.69
2023-02-07T06:18:42.933Z,99958.50
2023-02-07T06:21:46.101Z,99962.88
2023-02-07T06:24:19.808Z,99965.03
2023-02-07T06:26:52.133Z,99972.53
2023-02-07T06:29:24.073Z,99964.72
2023-02-07T06:31:59.793Z,99970.84
2023-02-07T06:34:33.006Z,99979.94
2023-02-07T06:37:05.358Z,99975.97
2023-02-07T06:39:37.732Z,99976.03
2023-02-07T06:42:10.134Z,99983.13
2023-02-07T06:44:42.895Z,99988.78
2023-02-07T06:47:16.307Z,99984.81
2023-02-07T06:49:49.045Z,99987.72
2023-02-07T06:52:20.986Z,100004.16
2023-02-07T06:55:15.242Z,100010.84
2023-02-07T06:58:08.473Z,100012.16
2023-02-07T07:00:40.367Z,100011.16
2023-02-07T07:03:17.931Z,100012.75
2023-02-07T07:05:49.813Z,100014.16
2023-02-07T07:08:23.216Z,100019.31
2023-02-07T07:10:57.135Z,100023.28
2023-02-07T07:13:30.754Z,100022.22
2023-02-07T07:16:03.588Z,100024.25
2023-02-07T07:18:37.611Z,100025.25
2023-02-07T07:21:11.375Z,100025.41
2023-02-07T07:23:44.016Z,100019.72
2023-02-07T07:26:16.798Z,100028.78
2023-02-07T07:28:50.006Z,100025.56
2023-02-07T07:31:21.928Z,100029.44
2023-02-07T07:33:55.553Z,100040.19
2023-02-07T07:36:28.071Z,100046.44
2023-02-07T07:39:03.885Z,100047.19
2023-02-07T07:41:36.676Z,100043.94
2023-02-07T07:44:09.697Z,100034.63
2023-02-07T07:46:41.780Z,100044.63
2023-02-07T07:49:14.618Z,100048.81
2023-02-07T07:51:47.094Z,100053.16
2023-02-07T07:54:23.573Z,100062.00
2023-02-07T07:56:56.131Z,100060.31
2023-02-07T07:59:29.311Z,100067.41
2023-02-07T08:02:19.905Z,100067.88
2023-02-07T08:07:46.152Z,100079.25
2023-02-07T08:10:37.329Z,100087.50
2023-02-07T08:13:10.063Z,100090.03
2023-02-07T08:15:43.521Z,100102.09
2023-02-07T08:18:15.414Z,100102.50
2023-02-07T08:23:43.563Z,100105.56
2023-02-07T08:26:16.021Z,100112.13
2023-02-07T08:31:43.199Z,100110.66
2023-02-07T08:34:15.289Z,100102.25
2023-02-07T08:36:48.479Z,100098.22
2023-02-07T08:39:21.756Z,100105.81
2023-02-07T08:41:54.517Z,100113.19
2023-02-07T08:44:27.295Z,100112.34
2023-02-07T08:47:00.303Z,100114.78
2023-02-07T08:49:52.862Z,100118.78
2023-02-07T08:52:26.162Z,100131.34
2023-02-07T08:54:58.676Z,100138.75
2023-02-07T08:57:32.327Z,100131.66
2023-02-07T09:00:07.225Z,100138.28
2023-02-07T09:02:43.288Z,100123.44
2023-02-07T09:05:15.244Z,100132.16
2023-02-07T09:07:48.053Z,100114.19
2023-02-07T09:10:20.028Z,100121.13
2023-02-07T09:12:52.936Z,100120.81
2023-02-07T09:15:26.037Z,100118.06
2023-02-07T09:17:58.921Z,100125.06
2023-02-07T09:20:30.898Z,100119.19
2023-02-07T09:23:18.620Z,100122.91
2023-02-07T09:25:52.663Z,100125.00
2023-02-07T09:28:25.498Z,100114.34
2023-02-07T09:30:57.545Z,100106.34
2023-02-07T09:33:30.517Z,100103.72
2023-02-07T09:36:04.092Z,100112.25
2023-02-07T09:38:37.622Z,100118.91
2023-02-07T09:41:54.448Z,100132.38
2023-02-07T09:44:49.467Z,100144.41
2023-02-07T09:47:25.340Z,100138.09
2023-02-07T09:50:07.519Z,100146.22
2023-02-07T09:52:50.734Z,100147.72
2023-02-07T09:55:34.388Z,100155.84
2023-02-07T09:58:58.021Z,100156.19
2023-02-07T10:01:38.339Z,100165.72
2023-02-07T10:04:21.629Z,100170.19
2023-02-07T10:06:57.824Z,100176.16
2023-02-07T10:09:44.759Z,100177.31
2023-02-07T10:12:50.073Z,100161.75
2023-02-07T10:15:47.832Z,100161.47
2023-02-07T10:19:09.546Z,100155.00
2023-02-07T10:22:08.027Z,100161.97
2023-02-07T10:25:17.237Z,100158.88
2023-02-07T10:28:14.831Z,100140.19
2023-02-07T10:30:55.181Z,100144.59
2023-02-07T10:33:38.917Z,100147.59
2023-02-07T10:36:15.695Z,100151.38
2023-02-07T10:39:09.721Z,100141.22
2023-02-07T10:41:45.041Z,100141.84
2023-02-07T10:44:19.762Z,100141.94
2023-02-07T10:47:02.468Z,100158.75
2023-02-07T10:49:37.679Z,100156.72
2023-02-07T10:52:29.934Z,100151.88
2023-02-07T10:55:06.337Z,100159.91
2023-02-07T10:57:40.676Z,100151.97
2023-02-07T11:00:30.843Z,100156.53
2023-02-07T11:03:27.410Z,100150.56
2023-02-07T11:06:04.586Z,100148.31
2023-02-07T11:08:38.261Z,100148.00
2023-02-07T11:11:20.021Z,100142.22
2023-02-07T11:13:55.065Z,100133.09
2023-02-07T11:16:28.066Z,100143.75
2023-02-07T11:19:06.570Z,100142.53
2023-02-07T11:21:43.274Z,100139.16
2023-02-07T11:24:21.793Z,100131.53
2023-02-07T11:27:05.118Z,100128.81
2023-02-07T11:29:59.745Z,100128.13
2023-02-07T11:32:33.708Z,100127.28
2023-02-07T11:35:11.069Z,100113.75
2023-02-07T11:38:12.841Z,100123.81
2023-02-07T11:40:48.390Z,100121.53
2023-02-07T11:43:23.389Z,100111.53
2023-02-07T11:46:06.489Z,100113.91
2023-02-07T11:48:40.628Z,100102.09
2023-02-07T11:51:18.128Z,100122.28
2023-02-07T11:54:11.959Z,100108.41
2023-02-07T11:56:50.121Z,100104.50
2023-02-07T11:59:28.033Z,100099.25
2023-02-07T12:02:16.773Z,100107.97
2023-02-07T12:04:50.070Z,100109.38
2023-02-07T12:07:38.879Z,100101.19
2023-02-07T12:10:22.911Z,100100.53
2023-02-07T12:13:07.111Z,100093.47
2023-02-07T12:15:56.234Z,100091.97
2023-02-07T12:18:36.005Z,100085.44
2023-02-07T12:21:27.982Z,100086.97
2023-02-07T12:24:14.221Z,100087.03
2023-02-07T12:27:04.077Z,100078.63
2023-02-07T12:30:04.881Z,100086.88
2023-02-07T12:32:49.466Z,100081.09
2023-02-07T12:35:55.456Z,100076.34
2023-02-07T12:38:38.866Z,100076.81
2023-02-07T12:41:26.398Z,100074.75
2023-02-07T12:44:38.736Z,100066.53
2023-02-07T12:47:38.936Z,100076.25
2023-02-07T12:50:45.368Z,100084.50
2023-02-07T12:53:36.987Z,100083.38
2023-02-07T12:56:43.269Z,100089.66
2023-02-07T12:59:50.754Z,100078.78
2023-02-07T13:02:36.600Z,100089.63
2023-02-07T13:05:28.043Z,100090.47
2023-02-07T13:08:38.293Z,100082.84
2023-02-07T13:11:46.723Z,100090.72
2023-02-07T13:14:50.000Z,100086.75
2023-02-07T13:17:51.566Z,100095.56
2023-02-07T13:20:29.322Z,100095.25
2023-02-07T13:23:09.902Z,100095.44
2023-02-07T13:25:46.157Z,100093.91
2023-02-07T13:28:37.081Z,100084.28
2023-02-07T13:31:15.617Z,100090.72
2023-02-07T13:33:50.623Z,100086.44
2023-02-07T13:36:44.579Z,100087.38
2023-02-07T13:39:27.649Z,100086.03
2023-02-07T13:42:25.370Z,100091.56
2023-02-07T13:45:46.450Z,100092.03
2023-02-07T13:48:59.115Z,100093.91
2023-02-07T13:51:59.243Z,100087.41
2023-02-07T13:55:04.300Z,100088.78
2023-02-07T13:57:55.331Z,100099.22
2023-02-07T14:00:37.834Z,100092.81
2023-02-07T14:03:29.268Z,100085.03
2023-02-07T14:06:22.347Z,100085.66
2023-02-07T14:09:03.239Z,100098.50
2023-02-07T14:11:50.419Z,100098.31
2023-02-07T14:14:30.760Z,100097.84
2023-02-07T14:17:07.328Z,100106.75
2023-02-07T14:19:45.489Z,100104.31
2023-02-07T14:22:27.160Z,100098.50
2023-02-07T14:24:59.035Z,100106.84
2023-02-07T14:28:03.362Z,100100.78
2023-02-07T14:30:59.300Z,100101.19
2023-02-07T14:33:39.496Z,100103.72
2023-02-07T14:36:14.259Z,100112.41
2023-02-07T14:39:11.579Z,100111.75
2023-02-07T14:41:44.034Z,100110.63
2023-02-07T14:44:36.608Z,100113.03
2023-02-07T14:47:22.776Z,100118.41
2023-02-07T14:49:59.047Z,100108.75
2023-02-07T14:52:36.320Z,100112.19
2023-02-07T14:55:18.476Z,100112.19
2023-02-07T14:58:00.204Z,100102.63
2023-02-07T15:00:44.562Z,100115.94
2023-02-07T15:03:20.108Z,100107.41
2023-02-07T15:05:59.377Z,100111.16
2023-02-07T15:08:36.787Z,100110.16
2023-02-07T15:11:13.193Z,100117.88
2023-02-07T15:13:48.639Z,100116.84
2023-02-07T15:16:28.525Z,100125.72
2023-02-07T15:19:15.342Z,100122.19
2023-02-07T15:21:49.678Z,100134.78
2023-02-07T15:24:37.132Z,100135.59
2023-02-07T15:27:27.775Z,100133.31
2023-02-07T15:30:05.707Z,100126.81
2023-02-07T15:32:48.140Z,100121.25
2023-02-07T15:35:27.150Z,100126.22
2023-02-07T15:38:25.364Z,100125.66
2023-02-07T15:40:58.545Z,100120.53
2023-02-07T15:43:34.635Z,100118.88
2023-02-07T15:46:11.979Z,100122.38
2023-02-07T15:48:56.489Z,100120.13
2023-02-07T15:51:31.383Z,100122.50
2023-02-07T15:54:04.180Z,100115.00
2023-02-07T15:56:36.737Z,100120.88
2023-02-07T15:59:11.477Z,100117.88
2023-02-07T16:01:44.103Z,100115.84
2023-02-07T16:04:17.178Z,100128.53
2023-02-07T16:07:07.723Z,100123.56
2023-02-07T16:09:44.396Z,100130.91
2023-02-07T16:12:50.511Z,100130.44
2023-02-07T16:15:23.261Z,100125.78
2023-02-07T16:17:56.267Z,100135.97
2023-02-07T16:20:31.470Z,100133.09
2023-02-07T16:23:07.752Z,100138.78
2023-02-07T16:25:41.909Z,100137.50
2023-02-07T16:28:15.744Z,100148.47
2023-02-07T16:30:48.798Z,100151.38
2023-02-07T16:33:20.792Z,100154.41
2023-02-07T16:35:53.772Z,100155.28
2023-02-07T16:38:26.153Z,100158.44
2023-02-07T16:41:06.908Z,100162.63
2023-02-07T16:43:40.461Z,100175.13
2023-02-07T16:46:13.444Z,100168.06
2023-02-07T16:48:45.355Z,100168.06
2023-02-07T16:51:18.393Z,100170.34
2023-02-07T16:53:50.978Z,100179.94
2023-02-07T16:56:28.320Z,100171.19
2023-02-07T16:59:00.654Z,100172.16
2023-02-07T17:01:33.677Z,100180.72
2023-02-07T17:04:05.642Z,100174.00
2023-02-07T17:06:39.342Z,100172.50
2023-02-07T17:09:21.994Z,100183.91
2023-02-07T17:11:54.733Z,100178.38
2023-02-07T17:14:28.694Z,100186.03
2023-02-07T17:17:01.087Z,100181.09
2023-02-07T17:19:33.703Z,100174.66
2023-02-07T17:22:05.592Z,100188.22
2023-02-07T17:24:38.200Z,100183.84
2023-02-07T17:27:10.589Z,100183.25
2023-02-07T17:29:44.420Z,100170.53
2023-02-07T17:32:16.324Z,100179.84
2023-02-07T17:34:48.896Z,100186.84
2023-02-07T17:37:21.255Z,100191.22
2023-02-07T17:39:53.820Z,100188.16
2023-02-07T17:42:25.735Z,100189.53
2023-02-07T17:44:57.988Z,100192.78
2023-02-07T17:47:29.902Z,100197.13
2023-02-07T17:50:04.369Z,100184.66
2023-02-07T17:52:36.271Z,100196.09
2023-02-07T17:55:08.924Z,100184.75
2023-02-07T17:57:41.622Z,100185.66
2023-02-07T18:00:22.594Z,100187.78
2023-02-07T18:02:54.513Z,100180.16
2023-02-07T18:05:27.384Z,100175.59
2023-02-07T18:07:59.658Z,100181.59
2023-02-07T18:10:34.896Z,100184.56
2023-02-07T18:13:06.898Z,100181.13
2023-02-07T18:15:39.525Z,100187.31
2023-02-07T18:18:13.927Z,100188.47
2023-02-07T18:20:46.500Z,100178.84
2023-02-07T18:23:18.926Z,100177.16
2023-02-07T18:25:52.334Z,100181.28
2023-02-07T18:28:24.867Z,100178.88
2023-02-07T18:30:57.998Z,100178.88
2023-02-07T18:33:29.935Z,100165.59
2023-02-07T18:38:58.188Z,100173.34
2023-02-07T18:41:30.464Z,100180.41
2023-02-07T18:44:03.662Z,100177.13
2023-02-07T18:46:35.601Z,100177.78
2023-02-07T18:49:08.337Z,100181.09
2023-02-07T18:51:43.431Z,100179.22
2023-02-07T18:54:16.816Z,100183.59
2023-02-07T19:00:01.536Z,100186.34
2023-02-07T19:02:34.116Z,100179.16
2023-02-07T19:08:22.167Z,100187.31
2023-02-07T19:11:04.562Z,100192.81
2023-02-07T19:13:37.104Z,100185.84
2023-02-07T19:19:09.126Z,100190.38
2023-02-07T19:22:03.809Z,100175.66
2023-02-07T19:24:37.379Z,100179.00
2023-02-07T19:27:09.946Z,100176.88
2023-02-07T19:32:35.094Z,100168.22
2023-02-07T19:35:08.123Z,100171.84
2023-02-07T19:37:40.142Z,100164.59
2023-02-07T19:43:05.091Z,100167.53
2023-02-07T19:45:40.062Z,100166.25
2023-02-07T19:48:15.072Z,100172.75
2023-02-07T19:50:47.933Z,100166.16
2023-02-07T19:53:20.298Z,100164.94
2023-02-07T19:55:52.634Z,100163.56
2023-02-07T19:58:25.248Z,100167.31
2023-02-07T20:00:58.364Z,100166.81
2023-02-07T20:03:31.435Z,100159.28
2023-02-07T20:06:09.794Z,100152.63
2023-02-07T20:08:46.717Z,100160.03
2023-02-07T20:11:21.001Z,100161.06
2023-02-07T20:13:57.446Z,100157.34
2023-02-07T20:16:35.623Z,100156.38
2023-02-07T20:19:08.303Z,100156.78
2023-02-07T20:21:41.541Z,100154.44
2023-02-07T20:24:14.704Z,100155.53
2023-02-07T20:26:47.592Z,100152.69
2023-02-07T20:29:20.658Z,100154.66
2023-02-07T20:32:15.908Z,100152.97
2023-02-07T20:34:47.841Z,100154.09
2023-02-07T20:40:14.027Z,100150.91
2023-02-07T20:42:45.943Z,100154.78
2023-02-07T20:45:18.430Z,100162.59
2023-02-07T20:47:50.729Z,100165.66
2023-02-07T20:50:22.865Z,100165.50
2023-02-07T20:52:56.664Z,100164.00
2023-02-07T20:55:29.811Z,100174.69
2023-02-07T20:58:02.565Z,100166.34
2023-02-07T21:00:34.809Z,100173.22
2023-02-07T21:03:07.177Z,100159.63
2023-02-07T21:05:59.021Z,100168.13
2023-02-07T21:08:31.307Z,100173.38
2023-02-07T21:11:05.909Z,100166.50
2023-02-07T21:13:40.054Z,100171.94
2023-02-07T21:16:12.052Z,100176.50
2023-02-07T21:18:47.900Z,100169.03
2023-02-07T21:21:20.541Z,100170.31
2023-02-07T21:23:55.966Z,100161.41
2023-02-07T21:26:29.295Z,100162.91
2023-02-07T21:29:04.704Z,100145.97
2023-02-07T21:31:36.658Z,100149.09
2023-02-07T21:34:09.844Z,100156.13
2023-02-07T21:36:43.560Z,100144.72
2023-02-07T21:39:15.932Z,100132.06
2023-02-07T21:41:48.579Z,100136.47
2023-02-07T21:44:22.448Z,100149.31
2023-02-07T21:46:55.314Z,100152.41
2023-02-07T21:49:27.224Z,100143.56
2023-02-07T21:52:22.452Z,100131.69
2023-02-07T21:54:54.763Z,100139.31
2023-02-07T21:57:27.492Z,100128.06
2023-02-07T21:59:59.885Z,100127.00
2023-02-07T22:02:32.495Z,100132.31
2023-02-07T22:05:05.529Z,100124.16
2023-02-07T22:07:37.439Z,100117.88
2023-02-07T22:10:10.218Z,100118.28
2023-02-07T22:12:42.296Z,100114.31
2023-02-07T22:15:15.063Z,100114.31
2023-02-07T22:17:47.592Z,100115.59
2023-02-07T22:20:19.518Z,100104.63
2023-02-07T22:22:52.704Z,100105.59
2023-02-07T22:25:24.660Z,100104.91
2023-02-07T22:27:57.446Z,100112.94
2023-02-07T22:30:29.808Z,100104.84
2023-02-07T22:33:01.725Z,100106.44
2023-02-07T22:35:39.970Z,100113.84
2023-02-07T22:38:13.695Z,100108.34
2023-02-07T22:40:46.485Z,100115.44
2023-02-07T22:43:18.984Z,100110.94
2023-02-07T22:45:51.324Z,100109.44
2023-02-07T22:48:42.910Z,100108.81
2023-02-07T22:54:22.051Z,100108.47
2023-02-07T22:56:54.361Z,100099.34
2023-02-07T22:59:45.174Z,100106.00
2023-02-07T23:02:18.730Z,100105.06
2023-02-07T23:04:51.150Z,100107.66
2023-02-07T23:07:24.636Z,100101.50
2023-02-07T23:09:58.298Z,100103.03
2023-02-07T23:12:30.637Z,100104.19
2023-02-07T23:15:02.645Z,100109.88
2023-02-07T23:17:35.562Z,100103.91
2023-02-07T23:20:07.829Z,100098.19
2023-02-07T23:22:40.588Z,100108.13
2023-02-07T23:25:16.034Z,100106.19
2023-02-07T23:27:49.263Z,100105.56
2023-02-07T23:30:21.741Z,100102.75
2023-02-07T23:32:54.074Z,100108.41
2023-02-07T23:35:25.982Z,100096.44
2023-02-07T23:37:58.724Z,100099.56
2023-02-07T23:40:30.686Z,100090.34
2023-02-07T23:43:03.603Z,100089.06
2023-02-07T23:45:35.504Z,100090.44
2023-02-07T23:48:08.274Z,100088.53
2023-02-07T23:50:40.449Z,100087.75
2023-02-07T23:53:13.766Z,100085.53
2023-02-07T23:55:45.676Z,100083.47
2023-02-07T23:58:18.730Z,100070.22
